sensor_id;sensor_type;location;lat;lon;timestamp;P1;durP1;ratioP1;P2;durP2;ratioP2
5173;SDS011;2606;50.934;6.934;2023-02-23T00:00:07;39.60;;;20.87;;
5173;SDS011;2606;50.934;6.934;2023-02-23T00:03:00;33.47;;;20.10;;
5173;SDS011;2606;50.934;6.934;2023-02-23T00:05:27;34.70;;;20.30;;
5173;SDS011;2606;50.934;6.934;2023-02-23T00:07:54;35.17;;;19.23;;
5173;SDS011;2606;50.934;6.934;2023-02-23T00:10:20;41.77;;;21.80;;
5173;SDS011;2606;50.934;6.934;2023-02-23T00:12:49;31.93;;;19.40;;
5173;SDS011;2606;50.934;6.934;2023-02-23T00:15:15;37.27;;;21.73;;
5173;SDS011;2606;50.934;6.934;2023-02-23T00:17:41;38.87;;;21.90;;
5173;SDS011;2606;50.934;6.934;2023-02-23T00:20:09;37.90;;;21.70;;
5173;SDS011;2606;50.934;6.934;2023-02-23T00:22:37;36.53;;;21.85;;
5173;SDS011;2606;50.934;6.934;2023-02-23T00:25:04;39.23;;;22.47;;
5173;SDS011;2606;50.934;6.934;2023-02-23T00:27:33;40.27;;;22.43;;
5173;SDS011;2606;50.934;6.934;2023-02-23T00:30:00;37.90;;;19.87;;
5173;SDS011;2606;50.934;6.934;2023-02-23T00:32:25;40.50;;;23.40;;
5173;SDS011;2606;50.934;6.934;2023-02-23T00:34:51;37.60;;;21.27;;
5173;SDS011;2606;50.934;6.934;2023-02-23T00:37:17;43.43;;;23.03;;
5173;SDS011;2606;50.934;6.934;2023-02-23T00:39:43;48.03;;;22.90;;
5173;SDS011;2606;50.934;6.934;2023-02-23T00:42:10;49.97;;;27.20;;
5173;SDS011;2606;50.934;6.934;2023-02-23T00:44:37;40.53;;;21.37;;
5173;SDS011;2606;50.934;6.934;2023-02-23T00:47:04;42.73;;;23.20;;
5173;SDS011;2606;50.934;6.934;2023-02-23T00:49:30;41.33;;;22.20;;
5173;SDS011;2606;50.934;6.934;2023-02-23T00:51:56;47.17;;;23.47;;
5173;SDS011;2606;50.934;6.934;2023-02-23T00:54:22;41.93;;;22.37;;
5173;SDS011;2606;50.934;6.934;2023-02-23T00:56:48;43.90;;;23.90;;
5173;SDS011;2606;50.934;6.934;2023-02-23T00:59:14;46.00;;;24.43;;
5173;SDS011;2606;50.934;6.934;2023-02-23T01:01:40;50.20;;;25.50;;
5173;SDS011;2606;50.934;6.934;2023-02-23T01:04:06;44.50;;;24.00;;
5173;SDS011;2606;50.934;6.934;2023-02-23T01:06:32;43.63;;;25.23;;
5173;SDS011;2606;50.934;6.934;2023-02-23T01:09:05;43.03;;;24.27;;
5173;SDS011;2606;50.934;6.934;2023-02-23T01:11:33;45.90;;;24.13;;
5173;SDS011;2606;50.934;6.934;2023-02-23T01:13:59;50.07;;;25.50;;
5173;SDS011;2606;50.934;6.934;2023-02-23T01:16:29;53.40;;;27.80;;
5173;SDS011;2606;50.934;6.934;2023-02-23T01:18:59;55.10;;;24.63;;
5173;SDS011;2606;50.934;6.934;2023-02-23T01:21:34;48.90;;;24.70;;
5173;SDS011;2606;50.934;6.934;2023-02-23T01:24:01;46.93;;;25.50;;
5173;SDS011;2606;50.934;6.934;2023-02-23T01:26:31;50.80;;;26.10;;
5173;SDS011;2606;50.934;6.934;2023-02-23T01:29:00;48.40;;;25.20;;
5173;SDS011;2606;50.934;6.934;2023-02-23T01:31:28;51.00;;;27.40;;
5173;SDS011;2606;50.934;6.934;2023-02-23T01:33:54;46.40;;;26.40;;
5173;SDS011;2606;50.934;6.934;2023-02-23T01:36:21;43.90;;;23.53;;
5173;SDS011;2606;50.934;6.934;2023-02-23T01:38:47;44.43;;;23.73;;
5173;SDS011;2606;50.934;6.934;2023-02-23T01:41:14;49.07;;;26.80;;
5173;SDS011;2606;50.934;6.934;2023-02-23T01:46:22;50.67;;;26.63;;
5173;SDS011;2606;50.934;6.934;2023-02-23T01:48:48;45.80;;;25.10;;
5173;SDS011;2606;50.934;6.934;2023-02-23T01:51:16;52.13;;;25.37;;
5173;SDS011;2606;50.934;6.934;2023-02-23T01:53:50;46.47;;;25.47;;
5173;SDS011;2606;50.934;6.934;2023-02-23T01:56:21;55.70;;;27.47;;
5173;SDS011;2606;50.934;6.934;2023-02-23T01:58:52;50.73;;;26.00;;
5173;SDS011;2606;50.934;6.934;2023-02-23T02:01:21;51.30;;;26.67;;
5173;SDS011;2606;50.934;6.934;2023-02-23T02:03:48;58.33;;;26.77;;
5173;SDS011;2606;50.934;6.934;2023-02-23T02:06:19;48.77;;;27.13;;
5173;SDS011;2606;50.934;6.934;2023-02-23T02:08:48;49.47;;;27.53;;
5173;SDS011;2606;50.934;6.934;2023-02-23T02:11:19;60.20;;;28.30;;
5173;SDS011;2606;50.934;6.934;2023-02-23T02:13:56;51.10;;;27.50;;
5173;SDS011;2606;50.934;6.934;2023-02-23T02:17:11;55.20;;;26.93;;
5173;SDS011;2606;50.934;6.934;2023-02-23T02:33:34;57.10;;;28.87;;
5173;SDS011;2606;50.934;6.934;2023-02-23T02:36:20;49.67;;;26.70;;
5173;SDS011;2606;50.934;6.934;2023-02-23T02:41:49;47.73;;;25.00;;
5173;SDS011;2606;50.934;6.934;2023-02-23T02:47:05;49.73;;;25.70;;
5173;SDS011;2606;50.934;6.934;2023-02-23T02:49:56;50.73;;;26.37;;
5173;SDS011;2606;50.934;6.934;2023-02-23T02:52:34;53.30;;;27.33;;
5173;SDS011;2606;50.934;6.934;2023-02-23T02:55:15;43.43;;;24.53;;
5173;SDS011;2606;50.934;6.934;2023-02-23T02:57:47;48.80;;;23.40;;
5173;SDS011;2606;50.934;6.934;2023-02-23T03:00:16;50.23;;;24.73;;
5173;SDS011;2606;50.934;6.934;2023-02-23T03:03:02;50.67;;;26.27;;
5173;SDS011;2606;50.934;6.934;2023-02-23T03:05:47;52.43;;;26.13;;
5173;SDS011;2606;50.934;6.934;2023-02-23T03:08:43;54.03;;;25.90;;
5173;SDS011;2606;50.934;6.934;2023-02-23T03:11:38;50.40;;;27.40;;
5173;SDS011;2606;50.934;6.934;2023-02-23T03:14:38;50.57;;;27.80;;
5173;SDS011;2606;50.934;6.934;2023-02-23T03:17:45;50.70;;;26.97;;
5173;SDS011;2606;50.934;6.934;2023-02-23T03:26:35;45.60;;;25.77;;
5173;SDS011;2606;50.934;6.934;2023-02-23T03:29:25;51.20;;;26.03;;
5173;SDS011;2606;50.934;6.934;2023-02-23T03:32:36;47.73;;;26.00;;
5173;SDS011;2606;50.934;6.934;2023-02-23T03:35:50;55.73;;;28.90;;
5173;SDS011;2606;50.934;6.934;2023-02-23T03:41:59;50.50;;;26.90;;
5173;SDS011;2606;50.934;6.934;2023-02-23T03:44:47;59.07;;;28.97;;
5173;SDS011;2606;50.934;6.934;2023-02-23T03:47:34;50.93;;;26.80;;
5173;SDS011;2606;50.934;6.934;2023-02-23T03:50:25;56.80;;;29.10;;
5173;SDS011;2606;50.934;6.934;2023-02-23T03:53:21;58.73;;;28.53;;
5173;SDS011;2606;50.934;6.934;2023-02-23T03:56:11;56.20;;;30.00;;
5173;SDS011;2606;50.934;6.934;2023-02-23T03:58:59;59.10;;;31.00;;
5173;SDS011;2606;50.934;6.934;2023-02-23T04:01:48;53.20;;;28.43;;
5173;SDS011;2606;50.934;6.934;2023-02-23T04:04:37;48.43;;;28.57;;
5173;SDS011;2606;50.934;6.934;2023-02-23T04:07:22;51.77;;;28.83;;
5173;SDS011;2606;50.934;6.934;2023-02-23T04:10:07;56.80;;;28.80;;
5173;SDS011;2606;50.934;6.934;2023-02-23T04:13:01;49.37;;;27.90;;
5173;SDS011;2606;50.934;6.934;2023-02-23T04:18:13;53.00;;;29.20;;
5173;SDS011;2606;50.934;6.934;2023-02-23T04:20:40;55.60;;;29.27;;
5173;SDS011;2606;50.934;6.934;2023-02-23T04:23:06;55.07;;;29.80;;
5173;SDS011;2606;50.934;6.934;2023-02-23T04:25:32;56.87;;;30.67;;
5173;SDS011;2606;50.934;6.934;2023-02-23T04:27:57;55.43;;;30.00;;
5173;SDS011;2606;50.934;6.934;2023-02-23T04:30:23;56.90;;;31.27;;
5173;SDS011;2606;50.934;6.934;2023-02-23T04:32:50;49.00;;;27.80;;
5173;SDS011;2606;50.934;6.934;2023-02-23T04:35:19;55.37;;;29.97;;
5173;SDS011;2606;50.934;6.934;2023-02-23T04:37:45;51.77;;;28.87;;
5173;SDS011;2606;50.934;6.934;2023-02-23T04:40:11;55.10;;;27.90;;
5173;SDS011;2606;50.934;6.934;2023-02-23T04:42:37;53.43;;;30.00;;
5173;SDS011;2606;50.934;6.934;2023-02-23T04:45:04;59.47;;;31.37;;
5173;SDS011;2606;50.934;6.934;2023-02-23T04:47:30;56.80;;;31.27;;
5173;SDS011;2606;50.934;6.934;2023-02-23T04:49:55;55.20;;;29.83;;
5173;SDS011;2606;50.934;6.934;2023-02-23T04:52:21;54.37;;;27.43;;
5173;SDS011;2606;50.934;6.934;2023-02-23T04:54:46;51.43;;;27.10;;
5173;SDS011;2606;50.934;6.934;2023-02-23T04:57:12;61.33;;;30.57;;
5173;SDS011;2606;50.934;6.934;2023-02-23T04:59:38;52.77;;;29.10;;
5173;SDS011;2606;50.934;6.934;2023-02-23T05:02:03;57.60;;;28.53;;
5173;SDS011;2606;50.934;6.934;2023-02-23T05:04:30;59.17;;;31.20;;
5173;SDS011;2606;50.934;6.934;2023-02-23T05:06:59;54.43;;;27.87;;
5173;SDS011;2606;50.934;6.934;2023-02-23T05:09:25;53.63;;;29.37;;
5173;SDS011;2606;50.934;6.934;2023-02-23T05:11:50;53.60;;;29.27;;
5173;SDS011;2606;50.934;6.934;2023-02-23T05:14:16;58.10;;;28.83;;
5173;SDS011;2606;50.934;6.934;2023-02-23T05:16:41;52.93;;;27.30;;
5173;SDS011;2606;50.934;6.934;2023-02-23T05:19:07;60.83;;;28.87;;
5173;SDS011;2606;50.934;6.934;2023-02-23T05:21:32;61.53;;;29.80;;
5173;SDS011;2606;50.934;6.934;2023-02-23T05:23:58;66.37;;;30.83;;
5173;SDS011;2606;50.934;6.934;2023-02-23T05:26:24;60.57;;;30.33;;
5173;SDS011;2606;50.934;6.934;2023-02-23T05:28:49;61.23;;;31.40;;
5173;SDS011;2606;50.934;6.934;2023-02-23T05:31:15;63.07;;;32.30;;
5173;SDS011;2606;50.934;6.934;2023-02-23T05:33:41;61.57;;;30.53;;
5173;SDS011;2606;50.934;6.934;2023-02-23T05:36:08;62.13;;;29.27;;
5173;SDS011;2606;50.934;6.934;2023-02-23T05:38:34;72.93;;;32.90;;
5173;SDS011;2606;50.934;6.934;2023-02-23T05:41:04;71.87;;;31.57;;
5173;SDS011;2606;50.934;6.934;2023-02-23T05:43:31;55.10;;;28.57;;
5173;SDS011;2606;50.934;6.934;2023-02-23T05:45:56;61.17;;;29.07;;
5173;SDS011;2606;50.934;6.934;2023-02-23T05:48:22;67.37;;;31.00;;
5173;SDS011;2606;50.934;6.934;2023-02-23T05:50:47;60.87;;;29.07;;
5173;SDS011;2606;50.934;6.934;2023-02-23T05:53:13;65.50;;;31.07;;
5173;SDS011;2606;50.934;6.934;2023-02-23T05:55:39;61.27;;;29.80;;
5173;SDS011;2606;50.934;6.934;2023-02-23T05:58:04;63.47;;;28.87;;
5173;SDS011;2606;50.934;6.934;2023-02-23T06:00:30;63.33;;;30.37;;
5173;SDS011;2606;50.934;6.934;2023-02-23T06:02:56;68.33;;;31.37;;
5173;SDS011;2606;50.934;6.934;2023-02-23T06:05:21;64.23;;;32.83;;
5173;SDS011;2606;50.934;6.934;2023-02-23T06:07:47;63.87;;;32.77;;
5173;SDS011;2606;50.934;6.934;2023-02-23T06:10:12;60.50;;;30.43;;
5173;SDS011;2606;50.934;6.934;2023-02-23T06:12:38;52.40;;;28.93;;
5173;SDS011;2606;50.934;6.934;2023-02-23T06:15:04;62.50;;;31.47;;
5173;SDS011;2606;50.934;6.934;2023-02-23T06:17:30;57.30;;;29.00;;
5173;SDS011;2606;50.934;6.934;2023-02-23T06:19:56;64.17;;;30.20;;
5173;SDS011;2606;50.934;6.934;2023-02-23T06:22:22;60.80;;;29.50;;
5173;SDS011;2606;50.934;6.934;2023-02-23T06:24:48;62.23;;;29.00;;
5173;SDS011;2606;50.934;6.934;2023-02-23T06:27:14;61.03;;;28.87;;
5173;SDS011;2606;50.934;6.934;2023-02-23T06:29:39;59.83;;;30.10;;
5173;SDS011;2606;50.934;6.934;2023-02-23T06:32:05;67.07;;;30.60;;
5173;SDS011;2606;50.934;6.934;2023-02-23T06:34:31;58.90;;;28.57;;
5173;SDS011;2606;50.934;6.934;2023-02-23T06:36:58;65.27;;;30.67;;
5173;SDS011;2606;50.934;6.934;2023-02-23T06:39:23;55.33;;;28.77;;
5173;SDS011;2606;50.934;6.934;2023-02-23T06:41:49;57.30;;;29.70;;
5173;SDS011;2606;50.934;6.934;2023-02-23T06:44:15;53.53;;;27.23;;
5173;SDS011;2606;50.934;6.934;2023-02-23T06:46:40;60.50;;;29.57;;
5173;SDS011;2606;50.934;6.934;2023-02-23T06:49:06;53.63;;;27.93;;
5173;SDS011;2606;50.934;6.934;2023-02-23T06:51:31;60.87;;;29.03;;
5173;SDS011;2606;50.934;6.934;2023-02-23T06:53:57;57.30;;;28.10;;
5173;SDS011;2606;50.934;6.934;2023-02-23T06:56:22;60.63;;;27.80;;
5173;SDS011;2606;50.934;6.934;2023-02-23T06:58:48;63.17;;;28.07;;
5173;SDS011;2606;50.934;6.934;2023-02-23T07:01:14;53.83;;;28.67;;
5173;SDS011;2606;50.934;6.934;2023-02-23T07:03:40;65.30;;;31.63;;
5173;SDS011;2606;50.934;6.934;2023-02-23T07:06:06;66.03;;;28.23;;
5173;SDS011;2606;50.934;6.934;2023-02-23T07:08:33;54.13;;;28.57;;
5173;SDS011;2606;50.934;6.934;2023-02-23T07:11:08;48.60;;;26.23;;
5173;SDS011;2606;50.934;6.934;2023-02-23T07:13:37;47.63;;;25.43;;
5173;SDS011;2606;50.934;6.934;2023-02-23T07:16:03;55.27;;;27.03;;
5173;SDS011;2606;50.934;6.934;2023-02-23T07:18:29;53.17;;;26.50;;
5173;SDS011;2606;50.934;6.934;2023-02-23T07:20:55;50.80;;;25.13;;
5173;SDS011;2606;50.934;6.934;2023-02-23T07:23:21;47.73;;;25.00;;
5173;SDS011;2606;50.934;6.934;2023-02-23T07:25:48;64.40;;;29.33;;
5173;SDS011;2606;50.934;6.934;2023-02-23T07:28:15;49.93;;;28.00;;
5173;SDS011;2606;50.934;6.934;2023-02-23T07:30:40;51.20;;;27.77;;
5173;SDS011;2606;50.934;6.934;2023-02-23T07:33:06;43.77;;;23.10;;
5173;SDS011;2606;50.934;6.934;2023-02-23T07:35:32;42.30;;;23.47;;
5173;SDS011;2606;50.934;6.934;2023-02-23T07:37:58;45.40;;;24.60;;
5173;SDS011;2606;50.934;6.934;2023-02-23T07:40:23;47.30;;;24.57;;
5173;SDS011;2606;50.934;6.934;2023-02-23T07:42:49;49.77;;;25.43;;
5173;SDS011;2606;50.934;6.934;2023-02-23T07:45:15;45.07;;;23.37;;
5173;SDS011;2606;50.934;6.934;2023-02-23T07:47:41;51.40;;;26.43;;
5173;SDS011;2606;50.934;6.934;2023-02-23T07:50:07;49.87;;;24.50;;
5173;SDS011;2606;50.934;6.934;2023-02-23T07:52:35;48.17;;;24.80;;
5173;SDS011;2606;50.934;6.934;2023-02-23T07:55:01;47.00;;;25.40;;
5173;SDS011;2606;50.934;6.934;2023-02-23T07:57:27;53.33;;;25.00;;
5173;SDS011;2606;50.934;6.934;2023-02-23T07:59:53;48.83;;;24.40;;
5173;SDS011;2606;50.934;6.934;2023-02-23T08:02:19;49.73;;;25.07;;
5173;SDS011;2606;50.934;6.934;2023-02-23T08:04:44;45.70;;;25.60;;
5173;SDS011;2606;50.934;6.934;2023-02-23T08:07:10;44.20;;;23.83;;
5173;SDS011;2606;50.934;6.934;2023-02-23T08:09:35;42.00;;;22.63;;
5173;SDS011;2606;50.934;6.934;2023-02-23T08:12:02;40.57;;;22.40;;
5173;SDS011;2606;50.934;6.934;2023-02-23T08:14:27;43.47;;;21.80;;
5173;SDS011;2606;50.934;6.934;2023-02-23T08:16:54;40.23;;;22.37;;
5173;SDS011;2606;50.934;6.934;2023-02-23T08:19:19;45.07;;;23.40;;
5173;SDS011;2606;50.934;6.934;2023-02-23T08:21:48;43.37;;;22.70;;
5173;SDS011;2606;50.934;6.934;2023-02-23T08:24:14;40.10;;;22.73;;
5173;SDS011;2606;50.934;6.934;2023-02-23T08:26:40;42.97;;;21.47;;
5173;SDS011;2606;50.934;6.934;2023-02-23T08:29:07;40.63;;;22.33;;
5173;SDS011;2606;50.934;6.934;2023-02-23T08:31:33;41.63;;;20.50;;
5173;SDS011;2606;50.934;6.934;2023-02-23T08:33:59;41.80;;;21.93;;
5173;SDS011;2606;50.934;6.934;2023-02-23T08:36:25;41.40;;;22.00;;
5173;SDS011;2606;50.934;6.934;2023-02-23T08:38:51;48.53;;;22.83;;
5173;SDS011;2606;50.934;6.934;2023-02-23T08:41:18;45.07;;;22.70;;
5173;SDS011;2606;50.934;6.934;2023-02-23T08:43:44;45.57;;;21.07;;
5173;SDS011;2606;50.934;6.934;2023-02-23T08:46:10;46.40;;;23.07;;
5173;SDS011;2606;50.934;6.934;2023-02-23T08:48:36;42.40;;;21.97;;
5173;SDS011;2606;50.934;6.934;2023-02-23T08:51:04;47.00;;;23.20;;
5173;SDS011;2606;50.934;6.934;2023-02-23T08:53:30;45.90;;;22.67;;
5173;SDS011;2606;50.934;6.934;2023-02-23T08:56:00;52.30;;;22.77;;
5173;SDS011;2606;50.934;6.934;2023-02-23T08:58:28;53.40;;;21.40;;
5173;SDS011;2606;50.934;6.934;2023-02-23T09:00:55;47.73;;;24.07;;
5173;SDS011;2606;50.934;6.934;2023-02-23T09:03:20;42.07;;;22.83;;
5173;SDS011;2606;50.934;6.934;2023-02-23T09:05:47;44.53;;;22.67;;
5173;SDS011;2606;50.934;6.934;2023-02-23T09:08:13;43.33;;;22.40;;
5173;SDS011;2606;50.934;6.934;2023-02-23T09:10:40;45.77;;;24.10;;
5173;SDS011;2606;50.934;6.934;2023-02-23T09:13:08;52.37;;;23.37;;
5173;SDS011;2606;50.934;6.934;2023-02-23T09:15:37;44.77;;;22.43;;
5173;SDS011;2606;50.934;6.934;2023-02-23T09:18:04;48.87;;;22.17;;
5173;SDS011;2606;50.934;6.934;2023-02-23T09:20:30;48.37;;;22.97;;
5173;SDS011;2606;50.934;6.934;2023-02-23T09:22:56;44.00;;;22.70;;
5173;SDS011;2606;50.934;6.934;2023-02-23T09:25:22;46.30;;;24.03;;
5173;SDS011;2606;50.934;6.934;2023-02-23T09:27:48;43.30;;;22.70;;
5173;SDS011;2606;50.934;6.934;2023-02-23T09:30:15;40.47;;;23.30;;
5173;SDS011;2606;50.934;6.934;2023-02-23T09:32:45;47.17;;;22.63;;
5173;SDS011;2606;50.934;6.934;2023-02-23T09:35:11;43.90;;;22.17;;
5173;SDS011;2606;50.934;6.934;2023-02-23T09:37:41;41.70;;;20.13;;
5173;SDS011;2606;50.934;6.934;2023-02-23T09:40:29;41.80;;;23.00;;
5173;SDS011;2606;50.934;6.934;2023-02-23T09:48:40;46.30;;;21.20;;
5173;SDS011;2606;50.934;6.934;2023-02-23T09:51:07;43.33;;;21.50;;
5173;SDS011;2606;50.934;6.934;2023-02-23T09:53:58;42.63;;;22.23;;
5173;SDS011;2606;50.934;6.934;2023-02-23T09:56:42;48.47;;;24.87;;
5173;SDS011;2606;50.934;6.934;2023-02-23T09:59:11;42.50;;;20.70;;
5173;SDS011;2606;50.934;6.934;2023-02-23T10:10:34;47.30;;;22.50;;
5173;SDS011;2606;50.934;6.934;2023-02-23T10:15:54;34.57;;;20.60;;
5173;SDS011;2606;50.934;6.934;2023-02-23T10:21:14;39.80;;;21.13;;
5173;SDS011;2606;50.934;6.934;2023-02-23T10:26:24;40.23;;;21.00;;
5173;SDS011;2606;50.934;6.934;2023-02-23T10:28:54;36.33;;;18.00;;
5173;SDS011;2606;50.934;6.934;2023-02-23T10:31:36;38.47;;;19.70;;
5173;SDS011;2606;50.934;6.934;2023-02-23T10:34:09;36.63;;;19.57;;
5173;SDS011;2606;50.934;6.934;2023-02-23T10:37:00;39.07;;;19.60;;
5173;SDS011;2606;50.934;6.934;2023-02-23T10:39:27;36.50;;;19.30;;
5173;SDS011;2606;50.934;6.934;2023-02-23T10:41:55;34.17;;;19.47;;
5173;SDS011;2606;50.934;6.934;2023-02-23T10:44:24;35.80;;;18.00;;
5173;SDS011;2606;50.934;6.934;2023-02-23T10:49:42;35.00;;;19.37;;
5173;SDS011;2606;50.934;6.934;2023-02-23T10:52:14;34.30;;;17.97;;
5173;SDS011;2606;50.934;6.934;2023-02-23T10:54:49;35.70;;;20.23;;
5173;SDS011;2606;50.934;6.934;2023-02-23T11:00:06;40.80;;;21.00;;
5173;SDS011;2606;50.934;6.934;2023-02-23T11:02:42;37.80;;;18.70;;
5173;SDS011;2606;50.934;6.934;2023-02-23T11:08:07;39.37;;;18.83;;
5173;SDS011;2606;50.934;6.934;2023-02-23T11:10:54;38.73;;;20.60;;
5173;SDS011;2606;50.934;6.934;2023-02-23T11:13:23;41.40;;;19.90;;
5173;SDS011;2606;50.934;6.934;2023-02-23T11:16:25;42.37;;;21.10;;
5173;SDS011;2606;50.934;6.934;2023-02-23T11:18:49;42.43;;;21.17;;
5173;SDS011;2606;50.934;6.934;2023-02-23T11:21:24;43.30;;;22.00;;
5173;SDS011;2606;50.934;6.934;2023-02-23T11:23:59;43.03;;;20.57;;
5173;SDS011;2606;50.934;6.934;2023-02-23T11:26:37;42.80;;;20.90;;
5173;SDS011;2606;50.934;6.934;2023-02-23T11:29:49;53.00;;;23.80;;
5173;SDS011;2606;50.934;6.934;2023-02-23T11:31:59;45.80;;;22.50;;
5173;SDS011;2606;50.934;6.934;2023-02-23T11:34:33;64.30;;;25.90;;
5173;SDS011;2606;50.934;6.934;2023-02-23T11:37:18;53.03;;;23.93;;
5173;SDS011;2606;50.934;6.934;2023-02-23T11:39:50;49.00;;;21.67;;
5173;SDS011;2606;50.934;6.934;2023-02-23T11:42:16;47.67;;;22.53;;
5173;SDS011;2606;50.934;6.934;2023-02-23T11:44:48;56.17;;;24.17;;
5173;SDS011;2606;50.934;6.934;2023-02-23T11:47:33;54.40;;;24.97;;
5173;SDS011;2606;50.934;6.934;2023-02-23T11:50:04;55.28;;;25.55;;
5173;SDS011;2606;50.934;6.934;2023-02-23T11:52:31;53.50;;;24.70;;
5173;SDS011;2606;50.934;6.934;2023-02-23T11:54:58;56.43;;;26.10;;
5173;SDS011;2606;50.934;6.934;2023-02-23T11:57:27;53.40;;;24.27;;
5173;SDS011;2606;50.934;6.934;2023-02-23T11:59:56;56.03;;;23.23;;
5173;SDS011;2606;50.934;6.934;2023-02-23T12:02:24;50.97;;;24.30;;
5173;SDS011;2606;50.934;6.934;2023-02-23T12:05:03;49.10;;;22.03;;
5173;SDS011;2606;50.934;6.934;2023-02-23T12:12:48;53.07;;;21.53;;
5173;SDS011;2606;50.934;6.934;2023-02-23T12:15:27;52.50;;;21.70;;
5173;SDS011;2606;50.934;6.934;2023-02-23T12:17:59;43.77;;;19.53;;
5173;SDS011;2606;50.934;6.934;2023-02-23T12:20:36;47.20;;;20.80;;
5173;SDS011;2606;50.934;6.934;2023-02-23T12:23:06;48.57;;;18.77;;
5173;SDS011;2606;50.934;6.934;2023-02-23T12:28:31;50.10;;;20.13;;
5173;SDS011;2606;50.934;6.934;2023-02-23T12:34:01;44.13;;;18.90;;
5173;SDS011;2606;50.934;6.934;2023-02-23T12:36:36;49.73;;;19.53;;
5173;SDS011;2606;50.934;6.934;2023-02-23T12:42:06;55.23;;;21.67;;
5173;SDS011;2606;50.934;6.934;2023-02-23T12:45:05;58.80;;;22.27;;
5173;SDS011;2606;50.934;6.934;2023-02-23T12:47:52;52.37;;;21.97;;
5173;SDS011;2606;50.934;6.934;2023-02-23T12:50:29;53.40;;;21.40;;
5173;SDS011;2606;50.934;6.934;2023-02-23T12:55:49;53.43;;;20.93;;
5173;SDS011;2606;50.934;6.934;2023-02-23T13:01:40;45.63;;;19.23;;
5173;SDS011;2606;50.934;6.934;2023-02-23T13:04:11;51.70;;;20.60;;
5173;SDS011;2606;50.934;6.934;2023-02-23T13:09:21;54.07;;;19.97;;
5173;SDS011;2606;50.934;6.934;2023-02-23T13:20:32;48.33;;;19.27;;
5173;SDS011;2606;50.934;6.934;2023-02-23T13:23:10;46.87;;;17.90;;
5173;SDS011;2606;50.934;6.934;2023-02-23T13:28:36;48.53;;;21.03;;
5173;SDS011;2606;50.934;6.934;2023-02-23T13:31:13;52.20;;;19.67;;
5173;SDS011;2606;50.934;6.934;2023-02-23T13:33:46;48.90;;;19.37;;
5173;SDS011;2606;50.934;6.934;2023-02-23T13:36:13;47.70;;;19.60;;
5173;SDS011;2606;50.934;6.934;2023-02-23T13:38:42;48.90;;;18.30;;
5173;SDS011;2606;50.934;6.934;2023-02-23T13:44:02;56.70;;;19.90;;
5173;SDS011;2606;50.934;6.934;2023-02-23T13:47:07;50.50;;;17.80;;
5173;SDS011;2606;50.934;6.934;2023-02-23T13:52:41;39.67;;;14.73;;
5173;SDS011;2606;50.934;6.934;2023-02-23T13:55:42;42.33;;;17.60;;
5173;SDS011;2606;50.934;6.934;2023-02-23T13:58:13;39.80;;;15.40;;
5173;SDS011;2606;50.934;6.934;2023-02-23T14:00:41;49.53;;;17.47;;
5173;SDS011;2606;50.934;6.934;2023-02-23T14:03:07;47.07;;;18.13;;
5173;SDS011;2606;50.934;6.934;2023-02-23T14:05:48;44.43;;;16.90;;
5173;SDS011;2606;50.934;6.934;2023-02-23T14:08:21;40.73;;;15.80;;
5173;SDS011;2606;50.934;6.934;2023-02-23T14:10:52;39.67;;;14.70;;
5173;SDS011;2606;50.934;6.934;2023-02-23T14:13:24;39.03;;;15.90;;
5173;SDS011;2606;50.934;6.934;2023-02-23T14:16:11;37.13;;;14.60;;
5173;SDS011;2606;50.934;6.934;2023-02-23T14:24:22;33.00;;;13.93;;
5173;SDS011;2606;50.934;6.934;2023-02-23T14:29:27;27.70;;;12.50;;
5173;SDS011;2606;50.934;6.934;2023-02-23T14:34:49;24.80;;;11.00;;
5173;SDS011;2606;50.934;6.934;2023-02-23T14:37:24;29.93;;;13.33;;
5173;SDS011;2606;50.934;6.934;2023-02-23T14:40:20;34.87;;;13.57;;
5173;SDS011;2606;50.934;6.934;2023-02-23T14:42:55;33.53;;;13.27;;
5173;SDS011;2606;50.934;6.934;2023-02-23T14:45:23;30.53;;;12.57;;
5173;SDS011;2606;50.934;6.934;2023-02-23T14:47:54;33.37;;;13.23;;
5173;SDS011;2606;50.934;6.934;2023-02-23T14:50:30;34.23;;;13.53;;
5173;SDS011;2606;50.934;6.934;2023-02-23T14:52:58;27.50;;;11.97;;
5173;SDS011;2606;50.934;6.934;2023-02-23T14:55:31;33.50;;;13.53;;
5173;SDS011;2606;50.934;6.934;2023-02-23T14:58:01;31.10;;;13.87;;
5173;SDS011;2606;50.934;6.934;2023-02-23T15:00:28;29.63;;;12.20;;
5173;SDS011;2606;50.934;6.934;2023-02-23T15:05:26;33.13;;;16.03;;
5173;SDS011;2606;50.934;6.934;2023-02-23T15:07:56;31.60;;;12.70;;
5173;SDS011;2606;50.934;6.934;2023-02-23T15:10:28;29.20;;;12.10;;
5173;SDS011;2606;50.934;6.934;2023-02-23T15:13:08;25.67;;;11.17;;
5173;SDS011;2606;50.934;6.934;2023-02-23T15:16:07;32.33;;;12.10;;
5173;SDS011;2606;50.934;6.934;2023-02-23T15:18:39;26.53;;;11.20;;
5173;SDS011;2606;50.934;6.934;2023-02-23T15:21:10;22.87;;;10.10;;
5173;SDS011;2606;50.934;6.934;2023-02-23T15:23:50;33.23;;;12.77;;
5173;SDS011;2606;50.934;6.934;2023-02-23T15:26:28;29.30;;;12.00;;
5173;SDS011;2606;50.934;6.934;2023-02-23T15:29:17;23.50;;;10.40;;
5173;SDS011;2606;50.934;6.934;2023-02-23T15:31:43;26.87;;;10.17;;
5173;SDS011;2606;50.934;6.934;2023-02-23T15:34:17;29.80;;;13.23;;
5173;SDS011;2606;50.934;6.934;2023-02-23T15:36:56;30.43;;;11.43;;
5173;SDS011;2606;50.934;6.934;2023-02-23T15:39:32;27.70;;;12.30;;
5173;SDS011;2606;50.934;6.934;2023-02-23T15:42:00;26.53;;;11.67;;
5173;SDS011;2606;50.934;6.934;2023-02-23T15:44:26;27.47;;;11.60;;
5173;SDS011;2606;50.934;6.934;2023-02-23T15:46:57;33.40;;;11.60;;
5173;SDS011;2606;50.934;6.934;2023-02-23T15:49:30;28.07;;;12.90;;
5173;SDS011;2606;50.934;6.934;2023-02-23T15:52:00;26.67;;;12.40;;
5173;SDS011;2606;50.934;6.934;2023-02-23T15:57:28;34.90;;;12.50;;
5173;SDS011;2606;50.934;6.934;2023-02-23T15:59:56;25.30;;;11.30;;
5173;SDS011;2606;50.934;6.934;2023-02-23T16:02:24;30.23;;;12.60;;
5173;SDS011;2606;50.934;6.934;2023-02-23T16:04:50;29.10;;;12.90;;
5173;SDS011;2606;50.934;6.934;2023-02-23T16:07:23;28.63;;;12.80;;
5173;SDS011;2606;50.934;6.934;2023-02-23T16:09:54;30.73;;;11.83;;
5173;SDS011;2606;50.934;6.934;2023-02-23T16:12:28;28.60;;;12.60;;
5173;SDS011;2606;50.934;6.934;2023-02-23T16:14:57;32.47;;;13.83;;
5173;SDS011;2606;50.934;6.934;2023-02-23T16:20:12;33.70;;;11.97;;
5173;SDS011;2606;50.934;6.934;2023-02-23T16:22:45;39.20;;;12.73;;
5173;SDS011;2606;50.934;6.934;2023-02-23T16:25:15;31.40;;;12.80;;
5173;SDS011;2606;50.934;6.934;2023-02-23T16:27:42;37.20;;;12.13;;
5173;SDS011;2606;50.934;6.934;2023-02-23T16:30:17;33.40;;;13.10;;
5173;SDS011;2606;50.934;6.934;2023-02-23T16:32:48;28.77;;;12.50;;
5173;SDS011;2606;50.934;6.934;2023-02-23T16:38:45;29.77;;;12.00;;
5173;SDS011;2606;50.934;6.934;2023-02-23T16:41:30;29.50;;;12.13;;
5173;SDS011;2606;50.934;6.934;2023-02-23T16:43:59;34.60;;;13.10;;
5173;SDS011;2606;50.934;6.934;2023-02-23T16:47:11;34.87;;;14.10;;
5173;SDS011;2606;50.934;6.934;2023-02-23T16:49:33;38.70;;;14.10;;
5173;SDS011;2606;50.934;6.934;2023-02-23T16:51:59;42.30;;;13.50;;
5173;SDS011;2606;50.934;6.934;2023-02-23T16:54:25;37.47;;;15.13;;
5173;SDS011;2606;50.934;6.934;2023-02-23T16:56:51;33.53;;;13.47;;
5173;SDS011;2606;50.934;6.934;2023-02-23T16:59:19;32.97;;;12.40;;
5173;SDS011;2606;50.934;6.934;2023-02-23T17:01:46;33.23;;;13.47;;
5173;SDS011;2606;50.934;6.934;2023-02-23T17:04:14;34.40;;;12.03;;
5173;SDS011;2606;50.934;6.934;2023-02-23T17:06:42;33.97;;;12.10;;
5173;SDS011;2606;50.934;6.934;2023-02-23T17:09:08;30.63;;;11.73;;
5173;SDS011;2606;50.934;6.934;2023-02-23T17:11:35;46.93;;;12.40;;
5173;SDS011;2606;50.934;6.934;2023-02-23T17:14:01;26.60;;;11.20;;
5173;SDS011;2606;50.934;6.934;2023-02-23T17:16:26;29.00;;;10.67;;
5173;SDS011;2606;50.934;6.934;2023-02-23T17:18:52;24.40;;;10.53;;
5173;SDS011;2606;50.934;6.934;2023-02-23T17:21:18;34.90;;;12.90;;